createdAt,value
2018-01-26T00:02:15.039Z,74.80
2018-01-26T00:04:42.592Z,59.03
2018-01-26T00:07:10.890Z,50.77
2018-01-26T00:09:38.496Z,65.30
2018-01-26T00:12:06.098Z,70.03
2018-01-26T00:14:34.402Z,70.27
2018-01-26T00:17:02.327Z,73.83
2018-01-26T00:19:30.680Z,50.90
2018-01-26T00:21:58.514Z,60.07
2018-01-26T00:24:26.065Z,52.30
2018-01-26T00:26:53.596Z,44.00
2018-01-26T00:29:21.343Z,45.60
2018-01-26T00:31:48.923Z,64.13
2018-01-26T00:34:16.524Z,46.90
2018-01-26T00:36:44.045Z,46.47
2018-01-26T00:39:11.594Z,54.13
2018-01-26T00:41:39.224Z,50.27
2018-01-26T00:44:06.961Z,48.47
2018-01-26T00:46:34.476Z,59.17
2018-01-26T00:49:02.035Z,51.60
2018-01-26T00:51:29.653Z,57.67
2018-01-26T00:53:57.457Z,47.03
2018-01-26T00:56:25.085Z,46.97
2018-01-26T00:58:52.803Z,40.27
2018-01-26T01:01:21.632Z,25.30
2018-01-26T01:03:49.748Z,27.43
2018-01-26T01:06:17.395Z,18.83
2018-01-26T01:08:44.915Z,16.83
2018-01-26T01:11:12.488Z,14.80
2018-01-26T01:13:40.153Z,14.40
2018-01-26T01:16:07.843Z,12.63
2018-01-26T01:18:35.843Z,11.73
2018-01-26T01:21:03.395Z,11.97
2018-01-26T01:23:31.167Z,16.37
2018-01-26T01:25:58.704Z,14.60
2018-01-26T01:28:26.279Z,15.23
2018-01-26T01:30:54.020Z,12.90
2018-01-26T01:33:22.325Z,12.77
2018-01-26T01:35:50.818Z,14.93
2018-01-26T01:38:19.105Z,17.40
2018-01-26T01:40:47.384Z,17.27
2018-01-26T01:43:15.694Z,17.20
2018-01-26T01:45:43.373Z,20.70
2018-01-26T01:48:11.926Z,13.13
2018-01-26T01:50:39.651Z,10.37
2018-01-26T01:53:07.950Z,20.10
2018-01-26T01:55:35.613Z,14.93
2018-01-26T01:58:04.014Z,15.33
2018-01-26T02:00:31.717Z,15.67
2018-01-26T02:02:59.334Z,16.43
2018-01-26T02:05:26.900Z,16.00
2018-01-26T02:07:54.629Z,17.10
2018-01-26T02:10:22.660Z,15.97
2018-01-26T02:12:50.238Z,18.80
2018-01-26T02:15:17.754Z,17.73
2018-01-26T02:17:45.523Z,19.60
2018-01-26T02:20:13.063Z,15.53
2018-01-26T02:22:40.895Z,16.80
2018-01-26T02:25:09.017Z,16.93
2018-01-26T02:27:37.206Z,21.80
2018-01-26T02:30:04.738Z,24.80
2018-01-26T02:32:32.300Z,25.27
2018-01-26T02:35:00.767Z,25.90
2018-01-26T02:37:29.113Z,29.10
2018-01-26T02:39:57.889Z,32.43
2018-01-26T02:42:25.532Z,30.50
2018-01-26T02:44:53.075Z,31.90
2018-01-26T02:47:20.661Z,33.27
2018-01-26T02:49:48.890Z,38.93
2018-01-26T02:52:16.453Z,42.13
2018-01-26T02:54:44.234Z,38.83
2018-01-26T02:57:11.828Z,48.13
2018-01-26T02:59:39.398Z,64.07
2018-01-26T03:02:06.991Z,55.13
2018-01-26T03:04:34.592Z,50.50
2018-01-26T03:07:02.175Z,25.17
2018-01-26T03:09:29.907Z,27.10
2018-01-26T03:11:57.650Z,34.87
2018-01-26T03:14:25.192Z,30.03
2018-01-26T03:16:53.643Z,41.47
2018-01-26T03:19:21.352Z,38.03
2018-01-26T03:21:49.059Z,47.80
2018-01-26T03:24:16.788Z,49.20
2018-01-26T03:26:44.324Z,54.07
2018-01-26T03:29:11.841Z,42.37
2018-01-26T03:31:39.432Z,38.47
2018-01-26T03:34:08.369Z,49.57
2018-01-26T03:36:36.297Z,56.37
2018-01-26T03:39:04.112Z,58.40
2018-01-26T03:41:31.663Z,37.93
2018-01-26T03:43:59.196Z,57.67
2018-01-26T03:46:27.596Z,64.57
2018-01-26T03:48:55.425Z,39.43
2018-01-26T03:51:23.848Z,47.40
2018-01-26T03:53:51.380Z,73.33
2018-01-26T03:56:19.207Z,58.63
2018-01-26T03:58:46.748Z,51.80
2018-01-26T04:01:14.290Z,48.77
2018-01-26T04:03:42.535Z,31.20
2018-01-26T04:06:11.512Z,42.73
2018-01-26T04:08:39.083Z,37.77
2018-01-26T04:11:06.792Z,45.40
2018-01-26T04:13:34.338Z,76.20
2018-01-26T04:16:01.883Z,50.30
2018-01-26T04:18:29.411Z,45.97
2018-01-26T04:20:57.835Z,51.27
2018-01-26T04:23:25.983Z,50.03
2018-01-26T04:25:53.552Z,37.17
2018-01-26T04:28:21.282Z,37.50
2018-01-26T04:30:48.817Z,42.13
2018-01-26T04:33:16.470Z,32.93
2018-01-26T04:35:44.004Z,38.20
2018-01-26T04:38:12.415Z,28.83
2018-01-26T04:40:40.143Z,37.60
2018-01-26T04:43:07.862Z,45.43
2018-01-26T04:45:35.394Z,54.47
2018-01-26T04:48:03.774Z,47.47
2018-01-26T04:50:32.253Z,51.30
2018-01-26T04:52:59.826Z,50.97
2018-01-26T04:55:27.547Z,47.73
2018-01-26T04:57:56.442Z,58.50
2018-01-26T05:00:24.003Z,54.70
2018-01-26T05:02:52.615Z,55.60
2018-01-26T05:05:20.276Z,61.30
2018-01-26T05:07:48.338Z,44.17
2018-01-26T05:10:16.031Z,73.67
2018-01-26T05:12:43.747Z,65.73
2018-01-26T05:15:12.778Z,82.10
2018-01-26T05:17:40.364Z,67.60
2018-01-26T05:20:07.921Z,74.10
2018-01-26T05:22:35.663Z,62.37
2018-01-26T05:25:03.210Z,68.57
2018-01-26T05:27:30.874Z,65.60
2018-01-26T05:29:58.459Z,68.73
2018-01-26T05:32:26.045Z,49.50
2018-01-26T05:34:54.497Z,61.97
2018-01-26T05:37:22.016Z,69.77
2018-01-26T05:39:50.400Z,59.83
2018-01-26T05:42:17.956Z,59.03
2018-01-26T05:44:45.690Z,84.57
2018-01-26T05:47:13.220Z,67.60
2018-01-26T05:49:40.763Z,62.90
2018-01-26T05:52:09.043Z,79.40
2018-01-26T05:54:36.715Z,70.60
2018-01-26T05:57:04.227Z,54.13
2018-01-26T05:59:32.566Z,76.70
2018-01-26T06:02:00.074Z,73.97
2018-01-26T06:04:27.633Z,72.63
2018-01-26T06:06:55.143Z,69.77
2018-01-26T06:09:23.292Z,89.57
2018-01-26T06:11:50.830Z,78.73
2018-01-26T06:14:19.049Z,71.47
2018-01-26T06:16:46.815Z,74.53
2018-01-26T06:19:14.646Z,90.23
2018-01-26T06:21:42.204Z,85.00
2018-01-26T06:24:09.915Z,78.30
2018-01-26T06:26:37.426Z,90.13
2018-01-26T06:29:04.950Z,83.97
2018-01-26T06:31:33.367Z,75.90
2018-01-26T06:34:01.407Z,80.50
2018-01-26T06:36:29.700Z,80.10
2018-01-26T06:38:57.332Z,77.07
2018-01-26T06:41:24.884Z,81.70
2018-01-26T06:43:52.814Z,74.27
2018-01-26T06:46:21.466Z,78.50
2018-01-26T06:48:50.402Z,93.70
2018-01-26T06:51:18.426Z,81.60
2018-01-26T06:53:46.707Z,78.97
2018-01-26T06:56:15.137Z,82.90
2018-01-26T06:58:42.701Z,77.87
2018-01-26T07:01:11.078Z,80.83
2018-01-26T07:03:39.084Z,68.00
2018-01-26T07:06:07.596Z,63.30
2018-01-26T07:08:35.266Z,60.57
2018-01-26T07:11:03.324Z,64.70
2018-01-26T07:13:31.594Z,65.50
2018-01-26T07:15:59.142Z,82.13
2018-01-26T07:18:27.434Z,74.37
2018-01-26T07:20:55.052Z,72.43
2018-01-26T07:23:22.899Z,82.87
2018-01-26T07:25:51.251Z,66.90
2018-01-26T07:28:18.870Z,82.90
2018-01-26T07:30:46.605Z,74.43
2018-01-26T07:33:14.168Z,75.80
2018-01-26T07:35:42.274Z,79.90
2018-01-26T07:38:10.344Z,66.87
2018-01-26T07:40:37.858Z,64.17
2018-01-26T07:43:05.935Z,85.53
2018-01-26T07:45:33.584Z,64.97
2018-01-26T07:48:01.283Z,59.30
2018-01-26T07:50:28.899Z,54.53
2018-01-26T07:52:56.778Z,62.00
2018-01-26T07:55:24.300Z,56.07
2018-01-26T07:57:51.993Z,55.00
2018-01-26T08:00:19.671Z,59.70
2018-01-26T08:02:47.682Z,59.50
2018-01-26T08:05:15.859Z,61.53
2018-01-26T08:07:44.589Z,61.40
2018-01-26T08:10:12.672Z,60.87
2018-01-26T08:12:40.238Z,64.20
2018-01-26T08:15:07.777Z,62.17
2018-01-26T08:17:35.392Z,57.30
2018-01-26T08:20:03.004Z,57.63
2018-01-26T08:22:30.620Z,56.60
2018-01-26T08:24:58.939Z,59.83
2018-01-26T08:27:26.614Z,55.23
2018-01-26T08:29:54.151Z,58.07
2018-01-26T08:32:22.051Z,58.17
2018-01-26T08:34:49.816Z,58.53
2018-01-26T08:37:18.776Z,56.43
2018-01-26T08:39:46.568Z,58.47
2018-01-26T08:42:14.144Z,57.83
2018-01-26T08:44:41.704Z,53.77
2018-01-26T08:47:09.542Z,57.57
2018-01-26T08:49:37.043Z,54.70
2018-01-26T08:52:04.590Z,57.77
2018-01-26T08:54:32.870Z,58.03
2018-01-26T08:57:00.457Z,61.83
2018-01-26T08:59:28.247Z,63.17
2018-01-26T09:01:55.820Z,61.30
2018-01-26T09:04:23.354Z,60.97
2018-01-26T09:06:52.624Z,58.90
2018-01-26T09:09:20.284Z,51.90
2018-01-26T09:11:48.346Z,60.20
2018-01-26T09:14:16.499Z,54.23
2018-01-26T09:16:44.083Z,53.30
2018-01-26T09:19:11.713Z,53.57
2018-01-26T09:21:39.447Z,56.53
2018-01-26T09:24:07.138Z,53.80
2018-01-26T09:26:34.657Z,59.53
2018-01-26T09:29:02.186Z,56.00
2018-01-26T09:31:29.701Z,66.00
2018-01-26T09:33:58.102Z,68.43
2018-01-26T09:36:26.023Z,63.53
2018-01-26T09:38:54.382Z,63.03
2018-01-26T09:41:21.924Z,60.53
2018-01-26T09:43:50.596Z,59.30
2018-01-26T09:46:18.471Z,58.23
2018-01-26T09:48:47.298Z,56.20
2018-01-26T09:51:29.324Z,54.17
2018-01-26T09:53:56.912Z,67.33
2018-01-26T09:56:24.688Z,64.23
2018-01-26T09:58:52.374Z,62.30
2018-01-26T10:01:20.177Z,61.27
2018-01-26T10:03:49.486Z,64.43
2018-01-26T10:06:17.069Z,66.23
2018-01-26T10:08:44.729Z,65.37
2018-01-26T10:11:12.367Z,72.37
2018-01-26T10:13:40.264Z,76.33
2018-01-26T10:16:08.818Z,69.37
2018-01-26T10:18:36.536Z,83.30
2018-01-26T10:21:04.851Z,90.50
2018-01-26T10:23:33.773Z,93.60
2018-01-26T10:26:01.526Z,88.97
2018-01-26T10:28:29.227Z,109.60
2018-01-26T10:30:56.887Z,131.83
2018-01-26T10:33:25.125Z,101.97
2018-01-26T10:35:52.690Z,110.73
2018-01-26T10:38:20.281Z,91.17
2018-01-26T10:40:48.082Z,93.90
2018-01-26T10:43:16.938Z,91.10
2018-01-26T10:45:45.344Z,92.40
2018-01-26T10:48:13.141Z,94.07
2018-01-26T10:50:40.790Z,101.70
2018-01-26T10:53:08.385Z,97.17
2018-01-26T10:55:36.122Z,102.83
2018-01-26T10:58:04.891Z,91.97
2018-01-26T11:00:33.671Z,98.97
2018-01-26T11:03:01.287Z,100.67
2018-01-26T11:05:28.929Z,95.40
2018-01-26T11:07:56.789Z,98.80
2018-01-26T11:10:24.586Z,121.67
2018-01-26T11:12:53.082Z,86.83
2018-01-26T11:15:20.941Z,97.90
2018-01-26T11:17:50.710Z,106.70
2018-01-26T11:20:19.159Z,88.43
2018-01-26T11:22:48.631Z,83.20
2018-01-26T11:25:16.845Z,95.97
2018-01-26T11:27:45.674Z,102.97
2018-01-26T11:30:13.604Z,75.23
2018-01-26T11:32:41.257Z,71.60
2018-01-26T11:35:08.955Z,69.40
2018-01-26T11:37:37.261Z,82.63
2018-01-26T11:40:04.825Z,69.13
2018-01-26T11:42:32.387Z,64.53
2018-01-26T11:45:00.026Z,42.17
2018-01-26T11:47:28.098Z,40.80
2018-01-26T11:49:56.834Z,42.10
2018-01-26T11:52:25.930Z,45.13
2018-01-26T11:54:53.534Z,39.43
2018-01-26T11:57:21.126Z,33.50
2018-01-26T11:59:48.732Z,31.57
2018-01-26T12:02:17.361Z,30.03
2018-01-26T12:04:45.110Z,28.07
2018-01-26T12:07:13.510Z,25.93
2018-01-26T12:09:42.532Z,21.23
2018-01-26T12:12:10.166Z,20.10
2018-01-26T12:14:37.829Z,18.73
2018-01-26T12:17:05.419Z,16.60
2018-01-26T12:19:32.952Z,17.27
2018-01-26T12:22:01.121Z,10.80
2018-01-26T12:24:28.982Z,12.60
2018-01-26T12:26:56.788Z,11.17
2018-01-26T12:29:24.337Z,12.47
2018-01-26T12:31:51.938Z,10.73
2018-01-26T12:34:19.534Z,8.67
2018-01-26T12:36:47.201Z,11.77
2018-01-26T12:39:14.888Z,11.70
2018-01-26T12:41:42.806Z,11.40
2018-01-26T12:44:10.456Z,7.87
2018-01-26T12:46:38.292Z,8.27
2018-01-26T12:49:05.919Z,7.73
2018-01-26T12:51:33.632Z,8.73
2018-01-26T12:54:01.213Z,9.30
2018-01-26T12:56:28.825Z,9.13
2018-01-26T12:58:56.453Z,12.07
2018-01-26T13:01:24.491Z,9.67
2018-01-26T13:03:53.048Z,15.13
2018-01-26T13:06:20.611Z,8.73
2018-01-26T13:08:48.799Z,10.53
2018-01-26T13:11:16.404Z,7.83
2018-01-26T13:13:44.038Z,8.80
2018-01-26T13:16:11.703Z,7.53
2018-01-26T13:18:40.135Z,7.17
2018-01-26T13:21:07.741Z,8.63
2018-01-26T13:23:35.326Z,7.97
2018-01-26T13:26:03.104Z,11.27
2018-01-26T13:28:30.896Z,7.30
2018-01-26T13:30:58.696Z,8.30
2018-01-26T13:33:27.207Z,9.23
2018-01-26T13:35:54.897Z,7.33
2018-01-26T13:38:23.489Z,10.83
2018-01-26T13:40:51.162Z,8.67
2018-01-26T13:43:19.131Z,8.17
2018-01-26T13:45:46.861Z,6.97
2018-01-26T13:48:14.885Z,7.93
2018-01-26T13:50:42.898Z,12.47
2018-01-26T13:53:10.470Z,8.87
2018-01-26T13:55:38.169Z,6.93
2018-01-26T13:58:06.489Z,7.00
2018-01-26T14:00:34.082Z,6.23
2018-01-26T14:03:01.620Z,9.37
2018-01-26T14:05:29.162Z,8.63
2018-01-26T14:07:56.710Z,12.90
2018-01-26T14:10:25.125Z,10.87
2018-01-26T14:12:52.646Z,9.23
2018-01-26T14:15:20.985Z,19.07
2018-01-26T14:17:49.074Z,7.67
2018-01-26T14:20:16.689Z,9.93
2018-01-26T14:22:44.465Z,14.43
2018-01-26T14:25:12.174Z,9.77
2018-01-26T14:27:39.689Z,9.10
2018-01-26T14:30:07.354Z,11.23
2018-01-26T14:32:34.922Z,7.93
2018-01-26T14:35:02.463Z,23.00
2018-01-26T14:37:30.308Z,17.00
2018-01-26T14:39:59.328Z,7.70
2018-01-26T14:42:27.555Z,8.10
2018-01-26T14:44:55.181Z,7.93
2018-01-26T14:47:22.822Z,7.40
2018-01-26T14:49:50.353Z,9.10
2018-01-26T14:52:18.700Z,6.63
2018-01-26T14:54:46.307Z,9.30
2018-01-26T14:57:13.913Z,9.07
2018-01-26T14:59:41.539Z,9.07
2018-01-26T15:02:09.118Z,11.30
2018-01-26T15:04:37.602Z,9.13
2018-01-26T15:07:05.205Z,10.33
2018-01-26T15:09:32.774Z,12.07
2018-01-26T15:12:00.368Z,11.50
2018-01-26T15:14:28.064Z,12.10
2018-01-26T15:16:56.097Z,10.90
2018-01-26T15:19:25.273Z,11.17
2018-01-26T15:21:53.601Z,21.27
2018-01-26T15:24:21.247Z,33.73
2018-01-26T15:26:49.749Z,14.77
2018-01-26T15:29:17.476Z,12.80
2018-01-26T15:31:45.203Z,14.10
2018-01-26T15:34:14.193Z,15.07
2018-01-26T15:36:43.166Z,16.13
2018-01-26T15:39:11.403Z,15.67
2018-01-26T15:41:39.094Z,15.70
2018-01-26T15:44:06.872Z,15.37
2018-01-26T15:46:34.486Z,15.07
2018-01-26T15:49:02.230Z,13.90
2018-01-26T15:51:29.967Z,15.70
2018-01-26T15:53:57.527Z,12.37
2018-01-26T15:56:25.181Z,16.33
2018-01-26T15:58:52.789Z,13.37
2018-01-26T16:01:20.470Z,16.40
2018-01-26T16:03:48.182Z,17.80
2018-01-26T16:06:16.461Z,14.67
2018-01-26T16:08:44.046Z,15.50
2018-01-26T16:11:11.631Z,17.10
2018-01-26T16:13:39.171Z,18.30
2018-01-26T16:16:06.730Z,12.93
2018-01-26T16:18:35.043Z,13.87
2018-01-26T16:21:02.765Z,43.63
2018-01-26T16:23:30.624Z,15.30
2018-01-26T16:25:59.651Z,15.07
2018-01-26T16:28:27.338Z,46.17
2018-01-26T16:30:55.433Z,19.23
2018-01-26T16:33:23.763Z,17.10
2018-01-26T16:35:51.298Z,18.33
2018-01-26T16:38:19.771Z,17.77
2018-01-26T16:40:49.279Z,17.77
2018-01-26T16:43:16.957Z,17.40
2018-01-26T16:45:46.501Z,24.50
2018-01-26T16:48:14.360Z,19.37
2018-01-26T16:50:41.884Z,22.83
2018-01-26T16:53:09.895Z,22.77
2018-01-26T16:55:38.046Z,20.10
2018-01-26T16:58:05.600Z,18.37
2018-01-26T17:00:34.390Z,20.57
2018-01-26T17:03:01.895Z,20.03
2018-01-26T17:05:29.533Z,20.27
2018-01-26T17:07:57.153Z,18.70
2018-01-26T17:10:26.034Z,21.87
2018-01-26T17:12:56.203Z,18.77
2018-01-26T17:15:23.787Z,22.47
2018-01-26T17:17:51.472Z,23.70
2018-01-26T17:20:19.154Z,20.43
2018-01-26T17:22:46.842Z,22.10
2018-01-26T17:25:14.752Z,18.50
2018-01-26T17:27:42.494Z,22.23
2018-01-26T17:30:10.233Z,23.43
2018-01-26T17:32:37.848Z,42.57
2018-01-26T17:35:05.458Z,58.53
2018-01-26T17:37:33.019Z,30.40
2018-01-26T17:40:00.691Z,26.57
2018-01-26T17:42:29.119Z,27.63
2018-01-26T17:44:57.005Z,20.33
2018-01-26T17:47:24.605Z,25.53
2018-01-26T17:49:52.405Z,19.80
2018-01-26T17:52:20.002Z,19.13
2018-01-26T17:54:48.079Z,19.27
2018-01-26T17:57:15.760Z,21.70
2018-01-26T17:59:43.317Z,22.20
2018-01-26T18:02:11.212Z,23.03
2018-01-26T18:04:39.038Z,17.67
2018-01-26T18:07:06.697Z,17.40
2018-01-26T18:09:34.240Z,15.27
2018-01-26T18:12:02.359Z,19.17
2018-01-26T18:14:29.954Z,18.27
2018-01-26T18:16:57.766Z,44.10
2018-01-26T18:19:25.460Z,40.23
2018-01-26T18:21:53.023Z,17.43
2018-01-26T18:24:20.991Z,20.57
2018-01-26T18:26:49.313Z,19.17
2018-01-26T18:29:16.869Z,22.67
2018-01-26T18:31:45.322Z,19.40
2018-01-26T18:34:12.866Z,21.80
2018-01-26T18:36:40.625Z,21.40
2018-01-26T18:39:08.175Z,18.90
2018-01-26T18:41:35.933Z,25.80
2018-01-26T18:44:03.664Z,25.93
2018-01-26T18:46:32.091Z,25.90
2018-01-26T18:49:00.271Z,21.13
2018-01-26T18:51:27.844Z,24.30
2018-01-26T18:53:56.262Z,21.37
2018-01-26T18:56:24.359Z,27.90
2018-01-26T18:58:51.889Z,24.97
2018-01-26T19:01:19.641Z,26.80
2018-01-26T19:03:47.197Z,25.03
2018-01-26T19:06:15.658Z,24.43
2018-01-26T19:08:43.179Z,42.23
2018-01-26T19:11:10.787Z,26.27
2018-01-26T19:13:38.383Z,22.93
2018-01-26T19:16:05.963Z,23.03
2018-01-26T19:18:33.705Z,24.80
2018-01-26T19:21:01.299Z,29.67
2018-01-26T19:23:28.893Z,24.67
2018-01-26T19:25:56.658Z,23.80
2018-01-26T19:28:26.352Z,25.03
2018-01-26T19:30:54.640Z,27.20
2018-01-26T19:33:22.202Z,26.60
2018-01-26T19:35:49.855Z,25.70
2018-01-26T19:38:17.378Z,27.57
2018-01-26T19:40:45.743Z,26.07
2018-01-26T19:43:13.259Z,43.20
2018-01-26T19:45:41.100Z,42.07
2018-01-26T19:48:08.740Z,30.23
2018-01-26T19:50:36.255Z,32.30
2018-01-26T19:53:03.906Z,35.53
2018-01-26T19:55:32.168Z,27.03
2018-01-26T19:58:00.815Z,30.63
2018-01-26T20:00:28.363Z,29.37
2018-01-26T20:02:56.768Z,60.07
2018-01-26T20:05:42.175Z,37.30
2018-01-26T20:08:29.567Z,35.00
2018-01-26T20:10:58.370Z,48.33
2018-01-26T20:13:28.246Z,33.37
2018-01-26T20:15:56.268Z,27.20
2018-01-26T20:18:23.987Z,33.57
2018-01-26T20:20:52.328Z,39.77
2018-01-26T20:23:19.910Z,29.37
2018-01-26T20:25:49.139Z,34.13
2018-01-26T20:28:16.816Z,30.90
2018-01-26T20:30:44.567Z,30.47
2018-01-26T20:33:12.159Z,28.60
2018-01-26T20:35:39.788Z,29.60
2018-01-26T20:38:08.070Z,31.33
2018-01-26T20:40:35.706Z,30.47
2018-01-26T20:43:03.603Z,37.13
2018-01-26T20:45:31.174Z,31.90
2018-01-26T20:47:58.760Z,41.73
2018-01-26T20:50:26.320Z,37.43
2018-01-26T20:52:53.916Z,36.43
2018-01-26T20:55:21.518Z,116.50
2018-01-26T20:57:50.190Z,54.53
2018-01-26T21:00:17.887Z,37.93
2018-01-26T21:02:45.398Z,38.83
2018-01-26T21:05:13.183Z,32.70
2018-01-26T21:07:41.509Z,32.47
2018-01-26T21:10:09.037Z,49.27
2018-01-26T21:12:36.540Z,35.10
2018-01-26T21:15:04.277Z,36.00
2018-01-26T21:17:31.801Z,47.77
2018-01-26T21:19:59.513Z,62.23
2018-01-26T21:22:28.618Z,38.97
2018-01-26T21:24:56.945Z,58.57
2018-01-26T21:27:24.800Z,40.93
2018-01-26T21:29:52.482Z,43.17
2018-01-26T21:32:20.047Z,36.43
2018-01-26T21:34:47.563Z,47.67
2018-01-26T21:37:15.198Z,34.73
2018-01-26T21:39:44.179Z,40.63
2018-01-26T21:42:12.509Z,35.10
2018-01-26T21:44:40.144Z,35.33
2018-01-26T21:47:08.574Z,37.63
2018-01-26T21:49:36.230Z,39.00
2018-01-26T21:52:04.245Z,44.13
2018-01-26T21:54:32.650Z,49.13
2018-01-26T21:57:00.242Z,72.90
2018-01-26T21:59:27.926Z,52.13
2018-01-26T22:01:56.405Z,42.47
2018-01-26T22:04:24.676Z,47.80
2018-01-26T22:06:58.161Z,45.20
2018-01-26T22:09:25.834Z,47.43
2018-01-26T22:11:53.378Z,40.33
2018-01-26T22:14:21.701Z,40.10
2018-01-26T22:16:49.513Z,39.63
2018-01-26T22:19:17.052Z,43.33
2018-01-26T22:21:45.687Z,37.67
2018-01-26T22:24:13.207Z,45.00
2018-01-26T22:26:40.846Z,39.53
2018-01-26T22:29:09.199Z,38.57
2018-01-26T22:31:37.706Z,41.30
2018-01-26T22:34:05.519Z,58.37
2018-01-26T22:36:33.151Z,51.27
2018-01-26T22:39:01.305Z,47.93
2018-01-26T22:41:29.706Z,46.80
2018-01-26T22:43:57.267Z,49.10
2018-01-26T22:46:24.831Z,57.77
2018-01-26T22:48:52.466Z,40.23
2018-01-26T22:51:20.396Z,37.30
2018-01-26T22:53:47.995Z,50.57
2018-01-26T22:56:15.553Z,56.70
2018-01-26T22:58:43.294Z,51.63
2018-01-26T23:01:11.256Z,50.83
2018-01-26T23:03:39.611Z,45.73
2018-01-26T23:06:08.443Z,61.00
2018-01-26T23:08:36.124Z,52.30
2018-01-26T23:11:04.431Z,51.63
2018-01-26T23:13:32.306Z,70.87
2018-01-26T23:16:00.392Z,106.47
2018-01-26T23:18:29.090Z,50.10
2018-01-26T23:20:56.770Z,48.30
2018-01-26T23:23:24.443Z,50.73
2018-01-26T23:25:52.227Z,47.63
2018-01-26T23:28:19.881Z,56.30
2018-01-26T23:30:47.809Z,52.17
2018-01-26T23:33:16.098Z,45.00
2018-01-26T23:35:44.036Z,44.50
2018-01-26T23:38:11.643Z,48.83
2018-01-26T23:40:40.242Z,53.53
2018-01-26T23:43:08.755Z,55.37
2018-01-26T23:45:36.305Z,55.47
2018-01-26T23:48:04.492Z,70.93
2018-01-26T23:50:32.976Z,78.80
2018-01-26T23:53:00.543Z,52.97
2018-01-26T23:55:28.163Z,46.47
2018-01-26T23:57:56.473Z,43.20
